sensor_id;sensor_type;location;lat;lon;timestamp;P1;durP1;ratioP1;P2;durP2;ratioP2
4603;SDS011;2314;48.272;11.562;2023-02-28T00:00:37;126.97;;;5.20;;
4603;SDS011;2314;48.272;11.562;2023-02-28T00:03:04;125.30;;;5.10;;
4603;SDS011;2314;48.272;11.562;2023-02-28T00:05:32;124.97;;;4.73;;
4603;SDS011;2314;48.272;11.562;2023-02-28T00:07:59;123.60;;;4.93;;
4603;SDS011;2314;48.272;11.562;2023-02-28T00:10:27;130.87;;;6.07;;
4603;SDS011;2314;48.272;11.562;2023-02-28T00:12:59;127.20;;;5.17;;
4603;SDS011;2314;48.272;11.562;2023-02-28T00:15:31;127.20;;;5.80;;
4603;SDS011;2314;48.272;11.562;2023-02-28T00:17:59;125.07;;;5.27;;
4603;SDS011;2314;48.272;11.562;2023-02-28T00:20:26;133.63;;;5.30;;
4603;SDS011;2314;48.272;11.562;2023-02-28T00:22:54;127.73;;;5.50;;
4603;SDS011;2314;48.272;11.562;2023-02-28T00:25:22;126.00;;;5.43;;
4603;SDS011;2314;48.272;11.562;2023-02-28T00:27:51;125.00;;;5.17;;
4603;SDS011;2314;48.272;11.562;2023-02-28T00:30:19;125.03;;;4.90;;
4603;SDS011;2314;48.272;11.562;2023-02-28T00:32:49;126.97;;;5.53;;
4603;SDS011;2314;48.272;11.562;2023-02-28T00:35:17;125.20;;;5.30;;
4603;SDS011;2314;48.272;11.562;2023-02-28T00:37:44;129.60;;;5.27;;
4603;SDS011;2314;48.272;11.562;2023-02-28T00:40:11;128.00;;;5.23;;
4603;SDS011;2314;48.272;11.562;2023-02-28T00:42:38;131.37;;;5.50;;
4603;SDS011;2314;48.272;11.562;2023-02-28T00:45:06;128.47;;;5.10;;
4603;SDS011;2314;48.272;11.562;2023-02-28T00:47:34;125.87;;;5.53;;
4603;SDS011;2314;48.272;11.562;2023-02-28T00:50:03;126.80;;;5.30;;
4603;SDS011;2314;48.272;11.562;2023-02-28T00:52:32;126.70;;;5.37;;
4603;SDS011;2314;48.272;11.562;2023-02-28T00:54:59;126.17;;;5.03;;
4603;SDS011;2314;48.272;11.562;2023-02-28T00:57:25;126.57;;;5.40;;
4603;SDS011;2314;48.272;11.562;2023-02-28T00:59:53;126.30;;;5.20;;
4603;SDS011;2314;48.272;11.562;2023-02-28T01:02:20;128.00;;;5.80;;
4603;SDS011;2314;48.272;11.562;2023-02-28T01:04:47;126.57;;;5.30;;
4603;SDS011;2314;48.272;11.562;2023-02-28T01:07:16;130.50;;;5.70;;
4603;SDS011;2314;48.272;11.562;2023-02-28T01:09:43;127.70;;;5.70;;
4603;SDS011;2314;48.272;11.562;2023-02-28T01:12:09;131.40;;;6.10;;
4603;SDS011;2314;48.272;11.562;2023-02-28T01:14:37;126.77;;;5.90;;
4603;SDS011;2314;48.272;11.562;2023-02-28T01:17:04;127.17;;;5.70;;
4603;SDS011;2314;48.272;11.562;2023-02-28T01:19:31;125.40;;;5.07;;
4603;SDS011;2314;48.272;11.562;2023-02-28T01:22:00;126.90;;;5.60;;
4603;SDS011;2314;48.272;11.562;2023-02-28T01:24:29;126.97;;;5.20;;
4603;SDS011;2314;48.272;11.562;2023-02-28T01:26:56;127.80;;;5.43;;
4603;SDS011;2314;48.272;11.562;2023-02-28T01:29:23;129.30;;;5.47;;
4603;SDS011;2314;48.272;11.562;2023-02-28T01:31:51;127.07;;;6.00;;
4603;SDS011;2314;48.272;11.562;2023-02-28T01:34:17;125.67;;;5.50;;
4603;SDS011;2314;48.272;11.562;2023-02-28T01:36:45;125.97;;;5.60;;
4603;SDS011;2314;48.272;11.562;2023-02-28T01:39:12;126.27;;;5.60;;
4603;SDS011;2314;48.272;11.562;2023-02-28T01:41:40;125.13;;;5.70;;
4603;SDS011;2314;48.272;11.562;2023-02-28T01:47:26;137.37;;;5.83;;
4603;SDS011;2314;48.272;11.562;2023-02-28T01:49:57;128.47;;;5.90;;
4603;SDS011;2314;48.272;11.562;2023-02-28T01:52:27;125.40;;;5.30;;
4603;SDS011;2314;48.272;11.562;2023-02-28T01:54:55;130.13;;;5.77;;
4603;SDS011;2314;48.272;11.562;2023-02-28T01:57:27;125.70;;;5.23;;
4603;SDS011;2314;48.272;11.562;2023-02-28T02:00:05;135.07;;;5.93;;
4603;SDS011;2314;48.272;11.562;2023-02-28T02:02:38;130.77;;;5.57;;
4603;SDS011;2314;48.272;11.562;2023-02-28T02:05:06;133.57;;;5.00;;
4603;SDS011;2314;48.272;11.562;2023-02-28T02:07:36;126.47;;;5.83;;
4603;SDS011;2314;48.272;11.562;2023-02-28T02:10:10;130.83;;;5.60;;
4603;SDS011;2314;48.272;11.562;2023-02-28T02:12:49;136.57;;;6.30;;
4603;SDS011;2314;48.272;11.562;2023-02-28T02:15:44;127.33;;;5.50;;
4603;SDS011;2314;48.272;11.562;2023-02-28T02:18:21;126.87;;;5.33;;
4603;SDS011;2314;48.272;11.562;2023-02-28T02:21:05;131.43;;;5.33;;
4603;SDS011;2314;48.272;11.562;2023-02-28T02:24:19;129.40;;;5.73;;
4603;SDS011;2314;48.272;11.562;2023-02-28T02:27:26;131.80;;;6.67;;
4603;SDS011;2314;48.272;11.562;2023-02-28T02:30:17;136.73;;;6.00;;
4603;SDS011;2314;48.272;11.562;2023-02-28T02:33:22;126.47;;;5.80;;
4603;SDS011;2314;48.272;11.562;2023-02-28T02:36:11;125.80;;;5.57;;
4603;SDS011;2314;48.272;11.562;2023-02-28T02:38:45;128.83;;;6.07;;
4603;SDS011;2314;48.272;11.562;2023-02-28T02:41:19;130.17;;;6.73;;
4603;SDS011;2314;48.272;11.562;2023-02-28T02:43:56;128.80;;;6.07;;
4603;SDS011;2314;48.272;11.562;2023-02-28T02:46:29;126.07;;;5.77;;
4603;SDS011;2314;48.272;11.562;2023-02-28T02:49:00;129.27;;;6.67;;
4603;SDS011;2314;48.272;11.562;2023-02-28T02:51:33;128.50;;;6.20;;
4603;SDS011;2314;48.272;11.562;2023-02-28T02:54:04;127.70;;;6.40;;
4603;SDS011;2314;48.272;11.562;2023-02-28T02:56:36;127.10;;;5.90;;
4603;SDS011;2314;48.272;11.562;2023-02-28T02:59:08;128.60;;;5.90;;
4603;SDS011;2314;48.272;11.562;2023-02-28T03:01:39;129.77;;;6.37;;
4603;SDS011;2314;48.272;11.562;2023-02-28T03:04:08;127.43;;;6.37;;
4603;SDS011;2314;48.272;11.562;2023-02-28T03:06:39;129.30;;;6.47;;
4603;SDS011;2314;48.272;11.562;2023-02-28T03:09:06;129.07;;;5.90;;
4603;SDS011;2314;48.272;11.562;2023-02-28T03:11:33;127.57;;;5.90;;
4603;SDS011;2314;48.272;11.562;2023-02-28T03:14:09;129.87;;;7.13;;
4603;SDS011;2314;48.272;11.562;2023-02-28T03:17:10;131.27;;;6.40;;
4603;SDS011;2314;48.272;11.562;2023-02-28T03:19:59;127.07;;;6.40;;
4603;SDS011;2314;48.272;11.562;2023-02-28T03:22:43;132.43;;;6.23;;
4603;SDS011;2314;48.272;11.562;2023-02-28T03:25:19;126.97;;;6.37;;
4603;SDS011;2314;48.272;11.562;2023-02-28T03:28:00;130.47;;;6.53;;
4603;SDS011;2314;48.272;11.562;2023-02-28T03:30:36;129.70;;;7.00;;
4603;SDS011;2314;48.272;11.562;2023-02-28T03:33:09;129.37;;;6.23;;
4603;SDS011;2314;48.272;11.562;2023-02-28T03:35:41;125.90;;;6.30;;
4603;SDS011;2314;48.272;11.562;2023-02-28T03:38:14;130.77;;;6.47;;
4603;SDS011;2314;48.272;11.562;2023-02-28T03:40:48;128.10;;;6.23;;
4603;SDS011;2314;48.272;11.562;2023-02-28T03:43:22;131.90;;;6.17;;
4603;SDS011;2314;48.272;11.562;2023-02-28T03:45:54;128.30;;;6.33;;
4603;SDS011;2314;48.272;11.562;2023-02-28T03:48:23;128.20;;;6.73;;
4603;SDS011;2314;48.272;11.562;2023-02-28T03:50:56;132.30;;;7.07;;
4603;SDS011;2314;48.272;11.562;2023-02-28T03:53:27;128.67;;;6.40;;
4603;SDS011;2314;48.272;11.562;2023-02-28T03:55:59;127.47;;;6.57;;
4603;SDS011;2314;48.272;11.562;2023-02-28T03:58:35;132.03;;;7.40;;
4603;SDS011;2314;48.272;11.562;2023-02-28T04:01:10;130.60;;;7.30;;
4603;SDS011;2314;48.272;11.562;2023-02-28T04:03:41;127.27;;;6.40;;
4603;SDS011;2314;48.272;11.562;2023-02-28T04:06:13;130.97;;;6.73;;
4603;SDS011;2314;48.272;11.562;2023-02-28T04:08:44;129.53;;;6.90;;
4603;SDS011;2314;48.272;11.562;2023-02-28T04:11:14;130.60;;;7.30;;
4603;SDS011;2314;48.272;11.562;2023-02-28T04:13:48;126.47;;;6.63;;
4603;SDS011;2314;48.272;11.562;2023-02-28T04:16:15;130.90;;;7.57;;
4603;SDS011;2314;48.272;11.562;2023-02-28T04:18:42;129.00;;;6.70;;
4603;SDS011;2314;48.272;11.562;2023-02-28T04:21:10;136.00;;;7.17;;
4603;SDS011;2314;48.272;11.562;2023-02-28T04:23:37;134.30;;;8.40;;
4603;SDS011;2314;48.272;11.562;2023-02-28T04:26:06;137.27;;;7.40;;
4603;SDS011;2314;48.272;11.562;2023-02-28T04:28:33;135.37;;;8.20;;
4603;SDS011;2314;48.272;11.562;2023-02-28T04:31:01;128.77;;;7.43;;
4603;SDS011;2314;48.272;11.562;2023-02-28T04:33:32;129.47;;;6.73;;
4603;SDS011;2314;48.272;11.562;2023-02-28T04:35:59;127.73;;;6.60;;
4603;SDS011;2314;48.272;11.562;2023-02-28T04:38:28;131.07;;;7.23;;
4603;SDS011;2314;48.272;11.562;2023-02-28T04:40:59;130.77;;;7.57;;
4603;SDS011;2314;48.272;11.562;2023-02-28T04:43:28;130.53;;;7.47;;
4603;SDS011;2314;48.272;11.562;2023-02-28T04:45:56;128.27;;;6.80;;
4603;SDS011;2314;48.272;11.562;2023-02-28T04:48:28;129.87;;;8.17;;
4603;SDS011;2314;48.272;11.562;2023-02-28T04:50:59;133.10;;;7.50;;
4603;SDS011;2314;48.272;11.562;2023-02-28T04:53:27;130.77;;;7.60;;
4603;SDS011;2314;48.272;11.562;2023-02-28T04:55:54;130.87;;;7.80;;
4603;SDS011;2314;48.272;11.562;2023-02-28T04:58:22;131.10;;;8.00;;
4603;SDS011;2314;48.272;11.562;2023-02-28T05:00:50;133.43;;;8.23;;
4603;SDS011;2314;48.272;11.562;2023-02-28T05:03:18;135.23;;;8.03;;
4603;SDS011;2314;48.272;11.562;2023-02-28T05:05:47;130.53;;;7.80;;
4603;SDS011;2314;48.272;11.562;2023-02-28T05:08:14;131.83;;;8.10;;
4603;SDS011;2314;48.272;11.562;2023-02-28T05:10:41;133.20;;;8.47;;
4603;SDS011;2314;48.272;11.562;2023-02-28T05:13:09;129.57;;;7.97;;
4603;SDS011;2314;48.272;11.562;2023-02-28T05:15:37;134.43;;;7.47;;
4603;SDS011;2314;48.272;11.562;2023-02-28T05:18:07;127.50;;;7.50;;
4603;SDS011;2314;48.272;11.562;2023-02-28T05:20:35;131.77;;;7.57;;
4603;SDS011;2314;48.272;11.562;2023-02-28T05:23:08;129.77;;;7.70;;
4603;SDS011;2314;48.272;11.562;2023-02-28T05:25:38;131.90;;;8.27;;
4603;SDS011;2314;48.272;11.562;2023-02-28T05:28:06;132.07;;;8.13;;
4603;SDS011;2314;48.272;11.562;2023-02-28T05:30:33;132.93;;;8.83;;
4603;SDS011;2314;48.272;11.562;2023-02-28T05:33:00;130.93;;;8.27;;
4603;SDS011;2314;48.272;11.562;2023-02-28T05:35:29;136.27;;;9.67;;
4603;SDS011;2314;48.272;11.562;2023-02-28T05:37:56;130.67;;;8.30;;
4603;SDS011;2314;48.272;11.562;2023-02-28T05:40:23;132.90;;;8.13;;
4603;SDS011;2314;48.272;11.562;2023-02-28T05:42:50;131.90;;;8.63;;
4603;SDS011;2314;48.272;11.562;2023-02-28T05:45:17;132.27;;;8.57;;
4603;SDS011;2314;48.272;11.562;2023-02-28T05:47:44;135.33;;;9.00;;
4603;SDS011;2314;48.272;11.562;2023-02-28T05:50:11;130.17;;;8.07;;
4603;SDS011;2314;48.272;11.562;2023-02-28T05:52:39;133.00;;;8.60;;
4603;SDS011;2314;48.272;11.562;2023-02-28T05:55:07;130.27;;;7.43;;
4603;SDS011;2314;48.272;11.562;2023-02-28T05:57:35;129.40;;;8.10;;
4603;SDS011;2314;48.272;11.562;2023-02-28T06:00:02;135.27;;;8.43;;
4603;SDS011;2314;48.272;11.562;2023-02-28T06:02:30;132.17;;;8.30;;
4603;SDS011;2314;48.272;11.562;2023-02-28T06:04:57;129.60;;;7.67;;
4603;SDS011;2314;48.272;11.562;2023-02-28T06:07:24;133.10;;;8.23;;
4603;SDS011;2314;48.272;11.562;2023-02-28T06:09:53;131.50;;;7.53;;
4603;SDS011;2314;48.272;11.562;2023-02-28T06:12:20;127.80;;;7.33;;
4603;SDS011;2314;48.272;11.562;2023-02-28T06:14:48;129.50;;;7.87;;
4603;SDS011;2314;48.272;11.562;2023-02-28T06:17:15;133.17;;;8.53;;
4603;SDS011;2314;48.272;11.562;2023-02-28T06:19:42;132.83;;;8.47;;
4603;SDS011;2314;48.272;11.562;2023-02-28T06:22:09;132.77;;;8.63;;
4603;SDS011;2314;48.272;11.562;2023-02-28T06:24:36;131.90;;;8.93;;
4603;SDS011;2314;48.272;11.562;2023-02-28T06:27:04;132.30;;;7.93;;
4603;SDS011;2314;48.272;11.562;2023-02-28T06:29:31;132.60;;;8.73;;
4603;SDS011;2314;48.272;11.562;2023-02-28T06:31:59;131.87;;;8.07;;
4603;SDS011;2314;48.272;11.562;2023-02-28T06:34:26;128.67;;;7.70;;
4603;SDS011;2314;48.272;11.562;2023-02-28T06:36:53;130.87;;;8.60;;
4603;SDS011;2314;48.272;11.562;2023-02-28T06:39:20;134.67;;;8.93;;
4603;SDS011;2314;48.272;11.562;2023-02-28T06:41:47;129.50;;;7.90;;
4603;SDS011;2314;48.272;11.562;2023-02-28T06:44:18;133.60;;;8.70;;
4603;SDS011;2314;48.272;11.562;2023-02-28T06:46:45;132.93;;;9.50;;
4603;SDS011;2314;48.272;11.562;2023-02-28T06:49:13;131.37;;;9.00;;
4603;SDS011;2314;48.272;11.562;2023-02-28T06:51:41;134.67;;;8.70;;
4603;SDS011;2314;48.272;11.562;2023-02-28T06:54:10;133.37;;;8.67;;
4603;SDS011;2314;48.272;11.562;2023-02-28T06:56:38;130.47;;;8.20;;
4603;SDS011;2314;48.272;11.562;2023-02-28T06:59:05;128.50;;;7.30;;
4603;SDS011;2314;48.272;11.562;2023-02-28T07:01:34;134.00;;;8.30;;
4603;SDS011;2314;48.272;11.562;2023-02-28T07:04:01;131.67;;;8.70;;
4603;SDS011;2314;48.272;11.562;2023-02-28T07:06:28;136.90;;;9.23;;
4603;SDS011;2314;48.272;11.562;2023-02-28T07:08:55;133.03;;;8.53;;
4603;SDS011;2314;48.272;11.562;2023-02-28T07:11:23;131.03;;;8.50;;
4603;SDS011;2314;48.272;11.562;2023-02-28T07:13:52;135.10;;;9.50;;
4603;SDS011;2314;48.272;11.562;2023-02-28T07:16:20;138.10;;;9.20;;
4603;SDS011;2314;48.272;11.562;2023-02-28T07:18:51;131.27;;;8.60;;
4603;SDS011;2314;48.272;11.562;2023-02-28T07:21:19;133.43;;;8.80;;
4603;SDS011;2314;48.272;11.562;2023-02-28T07:23:46;135.10;;;9.27;;
4603;SDS011;2314;48.272;11.562;2023-02-28T07:26:15;130.67;;;8.63;;
4603;SDS011;2314;48.272;11.562;2023-02-28T07:28:44;134.90;;;8.70;;
4603;SDS011;2314;48.272;11.562;2023-02-28T07:31:14;131.47;;;8.90;;
4603;SDS011;2314;48.272;11.562;2023-02-28T07:33:43;135.60;;;9.17;;
4603;SDS011;2314;48.272;11.562;2023-02-28T07:36:12;129.57;;;7.37;;
4603;SDS011;2314;48.272;11.562;2023-02-28T07:38:43;137.20;;;9.70;;
4603;SDS011;2314;48.272;11.562;2023-02-28T07:41:14;134.10;;;8.90;;
4603;SDS011;2314;48.272;11.562;2023-02-28T07:43:41;135.30;;;9.93;;
4603;SDS011;2314;48.272;11.562;2023-02-28T07:46:10;143.50;;;11.70;;
4603;SDS011;2314;48.272;11.562;2023-02-28T07:48:40;131.73;;;9.23;;
4603;SDS011;2314;48.272;11.562;2023-02-28T07:51:07;133.00;;;8.97;;
4603;SDS011;2314;48.272;11.562;2023-02-28T07:53:36;135.87;;;9.80;;
4603;SDS011;2314;48.272;11.562;2023-02-28T07:56:03;137.00;;;9.17;;
4603;SDS011;2314;48.272;11.562;2023-02-28T07:58:31;134.77;;;10.50;;
4603;SDS011;2314;48.272;11.562;2023-02-28T08:01:04;135.50;;;10.30;;
4603;SDS011;2314;48.272;11.562;2023-02-28T08:03:32;135.93;;;10.20;;
4603;SDS011;2314;48.272;11.562;2023-02-28T08:06:00;133.97;;;10.47;;
4603;SDS011;2314;48.272;11.562;2023-02-28T08:08:28;134.77;;;9.40;;
4603;SDS011;2314;48.272;11.562;2023-02-28T08:10:58;135.57;;;9.70;;
4603;SDS011;2314;48.272;11.562;2023-02-28T08:13:26;142.30;;;11.20;;
4603;SDS011;2314;48.272;11.562;2023-02-28T08:15:55;134.07;;;9.83;;
4603;SDS011;2314;48.272;11.562;2023-02-28T08:18:22;136.10;;;9.90;;
4603;SDS011;2314;48.272;11.562;2023-02-28T08:20:50;136.63;;;10.30;;
4603;SDS011;2314;48.272;11.562;2023-02-28T08:23:17;140.90;;;12.10;;
4603;SDS011;2314;48.272;11.562;2023-02-28T08:25:44;139.60;;;10.80;;
4603;SDS011;2314;48.272;11.562;2023-02-28T08:28:12;137.17;;;10.97;;
4603;SDS011;2314;48.272;11.562;2023-02-28T08:30:39;132.47;;;9.53;;
4603;SDS011;2314;48.272;11.562;2023-02-28T08:33:06;135.20;;;10.97;;
4603;SDS011;2314;48.272;11.562;2023-02-28T08:35:35;134.40;;;9.90;;
4603;SDS011;2314;48.272;11.562;2023-02-28T08:38:02;132.83;;;8.80;;
4603;SDS011;2314;48.272;11.562;2023-02-28T08:40:29;137.33;;;11.07;;
4603;SDS011;2314;48.272;11.562;2023-02-28T08:42:56;134.23;;;10.47;;
4603;SDS011;2314;48.272;11.562;2023-02-28T08:45:25;135.90;;;11.60;;
4603;SDS011;2314;48.272;11.562;2023-02-28T08:47:53;133.50;;;9.90;;
4603;SDS011;2314;48.272;11.562;2023-02-28T08:50:21;133.87;;;10.10;;
4603;SDS011;2314;48.272;11.562;2023-02-28T08:52:48;132.73;;;10.57;;
4603;SDS011;2314;48.272;11.562;2023-02-28T08:55:18;132.40;;;9.50;;
4603;SDS011;2314;48.272;11.562;2023-02-28T08:57:45;137.60;;;10.20;;
4603;SDS011;2314;48.272;11.562;2023-02-28T09:00:12;133.70;;;9.67;;
4603;SDS011;2314;48.272;11.562;2023-02-28T09:02:41;132.87;;;9.67;;
4603;SDS011;2314;48.272;11.562;2023-02-28T09:05:08;133.13;;;9.40;;
4603;SDS011;2314;48.272;11.562;2023-02-28T09:07:35;137.77;;;10.93;;
4603;SDS011;2314;48.272;11.562;2023-02-28T09:10:03;140.83;;;11.83;;
4603;SDS011;2314;48.272;11.562;2023-02-28T09:12:32;134.90;;;11.50;;
4603;SDS011;2314;48.272;11.562;2023-02-28T09:15:00;132.10;;;10.03;;
4603;SDS011;2314;48.272;11.562;2023-02-28T09:17:27;135.73;;;11.17;;
4603;SDS011;2314;48.272;11.562;2023-02-28T09:19:56;132.43;;;9.90;;
4603;SDS011;2314;48.272;11.562;2023-02-28T09:22:23;131.90;;;10.07;;
4603;SDS011;2314;48.272;11.562;2023-02-28T09:24:50;137.77;;;11.27;;
4603;SDS011;2314;48.272;11.562;2023-02-28T09:27:17;136.03;;;10.23;;
4603;SDS011;2314;48.272;11.562;2023-02-28T09:29:44;138.73;;;10.53;;
4603;SDS011;2314;48.272;11.562;2023-02-28T09:32:11;139.43;;;10.43;;
4603;SDS011;2314;48.272;11.562;2023-02-28T09:34:38;143.13;;;11.00;;
4603;SDS011;2314;48.272;11.562;2023-02-28T09:37:07;137.80;;;9.90;;
4603;SDS011;2314;48.272;11.562;2023-02-28T09:39:34;133.73;;;10.80;;
4603;SDS011;2314;48.272;11.562;2023-02-28T09:42:01;134.57;;;11.37;;
4603;SDS011;2314;48.272;11.562;2023-02-28T09:44:31;132.60;;;9.67;;
4603;SDS011;2314;48.272;11.562;2023-02-28T09:47:05;132.67;;;10.50;;
4603;SDS011;2314;48.272;11.562;2023-02-28T09:49:38;134.07;;;11.60;;
4603;SDS011;2314;48.272;11.562;2023-02-28T09:52:12;134.50;;;10.50;;
4603;SDS011;2314;48.272;11.562;2023-02-28T09:54:44;131.70;;;9.90;;
4603;SDS011;2314;48.272;11.562;2023-02-28T09:57:14;133.43;;;9.93;;
4603;SDS011;2314;48.272;11.562;2023-02-28T09:59:50;132.10;;;10.80;;
4603;SDS011;2314;48.272;11.562;2023-02-28T10:02:52;135.27;;;11.03;;
4603;SDS011;2314;48.272;11.562;2023-02-28T10:05:49;135.53;;;9.90;;
4603;SDS011;2314;48.272;11.562;2023-02-28T10:08:22;135.67;;;10.20;;
4603;SDS011;2314;48.272;11.562;2023-02-28T10:10:53;130.30;;;9.67;;
4603;SDS011;2314;48.272;11.562;2023-02-28T10:13:25;133.97;;;10.40;;
4603;SDS011;2314;48.272;11.562;2023-02-28T10:16:01;132.37;;;10.47;;
4603;SDS011;2314;48.272;11.562;2023-02-28T10:18:35;133.70;;;9.67;;
4603;SDS011;2314;48.272;11.562;2023-02-28T10:21:13;131.37;;;10.27;;
4603;SDS011;2314;48.272;11.562;2023-02-28T10:23:49;132.57;;;9.70;;
4603;SDS011;2314;48.272;11.562;2023-02-28T10:26:28;132.17;;;9.97;;
4603;SDS011;2314;48.272;11.562;2023-02-28T10:28:59;130.93;;;9.53;;
4603;SDS011;2314;48.272;11.562;2023-02-28T10:31:27;133.27;;;10.73;;
4603;SDS011;2314;48.272;11.562;2023-02-28T10:33:55;131.17;;;10.20;;
4603;SDS011;2314;48.272;11.562;2023-02-28T10:36:22;133.27;;;10.40;;
4603;SDS011;2314;48.272;11.562;2023-02-28T10:38:50;132.00;;;10.30;;
4603;SDS011;2314;48.272;11.562;2023-02-28T10:41:26;133.90;;;11.63;;
4603;SDS011;2314;48.272;11.562;2023-02-28T10:44:12;129.37;;;9.00;;
4603;SDS011;2314;48.272;11.562;2023-02-28T10:46:44;133.57;;;10.97;;
4603;SDS011;2314;48.272;11.562;2023-02-28T10:49:13;131.30;;;10.30;;
4603;SDS011;2314;48.272;11.562;2023-02-28T10:51:44;131.50;;;9.73;;
4603;SDS011;2314;48.272;11.562;2023-02-28T10:54:16;133.10;;;9.93;;
4603;SDS011;2314;48.272;11.562;2023-02-28T10:56:59;129.80;;;9.50;;
4603;SDS011;2314;48.272;11.562;2023-02-28T10:59:35;130.83;;;9.87;;
4603;SDS011;2314;48.272;11.562;2023-02-28T11:02:07;131.20;;;10.20;;
4603;SDS011;2314;48.272;11.562;2023-02-28T11:04:59;130.10;;;9.33;;
4603;SDS011;2314;48.272;11.562;2023-02-28T11:07:26;137.07;;;11.30;;
4603;SDS011;2314;48.272;11.562;2023-02-28T11:09:56;131.83;;;8.83;;
4603;SDS011;2314;48.272;11.562;2023-02-28T11:12:25;131.77;;;9.63;;
4603;SDS011;2314;48.272;11.562;2023-02-28T11:15:03;133.30;;;9.90;;
4603;SDS011;2314;48.272;11.562;2023-02-28T11:17:52;133.47;;;9.60;;
4603;SDS011;2314;48.272;11.562;2023-02-28T11:20:21;131.77;;;10.10;;
4603;SDS011;2314;48.272;11.562;2023-02-28T11:22:52;128.30;;;9.70;;
4603;SDS011;2314;48.272;11.562;2023-02-28T11:25:23;129.93;;;9.73;;
4603;SDS011;2314;48.272;11.562;2023-02-28T11:27:53;131.90;;;9.60;;
4603;SDS011;2314;48.272;11.562;2023-02-28T11:30:23;132.27;;;10.20;;
4603;SDS011;2314;48.272;11.562;2023-02-28T11:32:54;132.37;;;10.00;;
4603;SDS011;2314;48.272;11.562;2023-02-28T11:35:23;133.43;;;9.43;;
4603;SDS011;2314;48.272;11.562;2023-02-28T11:37:55;129.40;;;9.33;;
4603;SDS011;2314;48.272;11.562;2023-02-28T11:40:27;133.20;;;9.40;;
4603;SDS011;2314;48.272;11.562;2023-02-28T11:43:04;131.60;;;9.70;;
4603;SDS011;2314;48.272;11.562;2023-02-28T11:45:50;134.60;;;9.47;;
4603;SDS011;2314;48.272;11.562;2023-02-28T11:48:36;132.37;;;10.03;;
4603;SDS011;2314;48.272;11.562;2023-02-28T11:51:16;128.47;;;9.53;;
4603;SDS011;2314;48.272;11.562;2023-02-28T11:53:54;128.63;;;9.67;;
4603;SDS011;2314;48.272;11.562;2023-02-28T11:56:42;130.27;;;9.10;;
4603;SDS011;2314;48.272;11.562;2023-02-28T11:59:19;137.00;;;10.83;;
4603;SDS011;2314;48.272;11.562;2023-02-28T12:02:20;135.60;;;9.60;;
4603;SDS011;2314;48.272;11.562;2023-02-28T12:04:56;131.67;;;9.87;;
4603;SDS011;2314;48.272;11.562;2023-02-28T12:07:43;131.10;;;9.63;;
4603;SDS011;2314;48.272;11.562;2023-02-28T12:10:24;129.97;;;9.23;;
4603;SDS011;2314;48.272;11.562;2023-02-28T12:13:07;132.83;;;10.73;;
4603;SDS011;2314;48.272;11.562;2023-02-28T12:15:54;131.03;;;9.60;;
4603;SDS011;2314;48.272;11.562;2023-02-28T12:19:13;134.60;;;9.70;;
4603;SDS011;2314;48.272;11.562;2023-02-28T12:21:50;129.03;;;9.30;;
4603;SDS011;2314;48.272;11.562;2023-02-28T12:24:39;130.00;;;10.27;;
4603;SDS011;2314;48.272;11.562;2023-02-28T12:27:21;132.80;;;9.70;;
4603;SDS011;2314;48.272;11.562;2023-02-28T12:29:55;131.87;;;10.10;;
4603;SDS011;2314;48.272;11.562;2023-02-28T12:32:30;131.20;;;10.10;;
4603;SDS011;2314;48.272;11.562;2023-02-28T12:35:02;134.03;;;10.07;;
4603;SDS011;2314;48.272;11.562;2023-02-28T12:37:39;132.67;;;10.27;;
4603;SDS011;2314;48.272;11.562;2023-02-28T12:40:12;131.10;;;9.20;;
4603;SDS011;2314;48.272;11.562;2023-02-28T12:42:45;133.43;;;9.70;;
4603;SDS011;2314;48.272;11.562;2023-02-28T12:45:18;131.20;;;10.50;;
4603;SDS011;2314;48.272;11.562;2023-02-28T12:47:50;133.60;;;9.50;;
4603;SDS011;2314;48.272;11.562;2023-02-28T12:50:23;132.87;;;10.43;;
4603;SDS011;2314;48.272;11.562;2023-02-28T12:52:53;133.10;;;10.30;;
4603;SDS011;2314;48.272;11.562;2023-02-28T12:55:28;131.90;;;9.63;;
4603;SDS011;2314;48.272;11.562;2023-02-28T12:58:05;128.23;;;9.03;;
4603;SDS011;2314;48.272;11.562;2023-02-28T13:00:42;131.67;;;9.63;;
4603;SDS011;2314;48.272;11.562;2023-02-28T13:03:51;132.10;;;9.87;;
4603;SDS011;2314;48.272;11.562;2023-02-28T13:06:56;133.40;;;9.60;;
4603;SDS011;2314;48.272;11.562;2023-02-28T13:09:37;129.17;;;9.50;;
4603;SDS011;2314;48.272;11.562;2023-02-28T13:12:12;130.70;;;10.07;;
4603;SDS011;2314;48.272;11.562;2023-02-28T13:14:40;133.90;;;10.00;;
4603;SDS011;2314;48.272;11.562;2023-02-28T13:17:12;147.60;;;9.97;;
4603;SDS011;2314;48.272;11.562;2023-02-28T13:19:45;134.97;;;10.13;;
4603;SDS011;2314;48.272;11.562;2023-02-28T13:22:37;132.07;;;10.13;;
4603;SDS011;2314;48.272;11.562;2023-02-28T13:38:21;131.27;;;10.40;;
4603;SDS011;2314;48.272;11.562;2023-02-28T13:44:21;133.50;;;9.90;;
4603;SDS011;2314;48.272;11.562;2023-02-28T13:52:58;132.73;;;9.20;;
4603;SDS011;2314;48.272;11.562;2023-02-28T13:56:00;130.93;;;9.17;;
4603;SDS011;2314;48.272;11.562;2023-02-28T13:58:42;130.50;;;9.10;;
4603;SDS011;2314;48.272;11.562;2023-02-28T14:01:23;129.67;;;9.70;;
4603;SDS011;2314;48.272;11.562;2023-02-28T14:04:09;130.03;;;10.07;;
4603;SDS011;2314;48.272;11.562;2023-02-28T14:07:16;130.30;;;9.17;;
4603;SDS011;2314;48.272;11.562;2023-02-28T14:09:50;129.40;;;9.70;;
4603;SDS011;2314;48.272;11.562;2023-02-28T14:15:28;132.00;;;9.63;;
4603;SDS011;2314;48.272;11.562;2023-02-28T14:18:19;132.23;;;9.47;;
4603;SDS011;2314;48.272;11.562;2023-02-28T14:20:53;129.00;;;8.97;;
4603;SDS011;2314;48.272;11.562;2023-02-28T14:26:47;131.27;;;9.73;;
4603;SDS011;2314;48.272;11.562;2023-02-28T14:29:59;131.27;;;9.70;;
4603;SDS011;2314;48.272;11.562;2023-02-28T14:32:59;128.87;;;9.27;;
4603;SDS011;2314;48.272;11.562;2023-02-28T14:35:43;137.13;;;10.93;;
4603;SDS011;2314;48.272;11.562;2023-02-28T14:38:27;137.40;;;10.10;;
4603;SDS011;2314;48.272;11.562;2023-02-28T14:40:58;137.60;;;10.10;;
4603;SDS011;2314;48.272;11.562;2023-02-28T14:43:47;132.47;;;10.33;;
4603;SDS011;2314;48.272;11.562;2023-02-28T14:46:20;133.80;;;9.83;;
4603;SDS011;2314;48.272;11.562;2023-02-28T14:48:50;129.30;;;9.87;;
4603;SDS011;2314;48.272;11.562;2023-02-28T14:51:19;132.27;;;10.00;;
4603;SDS011;2314;48.272;11.562;2023-02-28T14:53:50;130.57;;;10.00;;
4603;SDS011;2314;48.272;11.562;2023-02-28T14:56:23;136.20;;;9.70;;
4603;SDS011;2314;48.272;11.562;2023-02-28T14:58:55;129.80;;;9.50;;
4603;SDS011;2314;48.272;11.562;2023-02-28T15:01:24;129.10;;;9.40;;
4603;SDS011;2314;48.272;11.562;2023-02-28T15:03:59;130.30;;;9.10;;
4603;SDS011;2314;48.272;11.562;2023-02-28T15:10:13;130.77;;;10.10;;
4603;SDS011;2314;48.272;11.562;2023-02-28T15:12:48;128.90;;;9.70;;
4603;SDS011;2314;48.272;11.562;2023-02-28T15:15:20;133.53;;;9.83;;
4603;SDS011;2314;48.272;11.562;2023-02-28T15:17:49;130.07;;;8.80;;
4603;SDS011;2314;48.272;11.562;2023-02-28T15:20:21;130.23;;;10.17;;
4603;SDS011;2314;48.272;11.562;2023-02-28T15:22:49;130.47;;;9.53;;
4603;SDS011;2314;48.272;11.562;2023-02-28T15:25:22;135.30;;;10.43;;
4603;SDS011;2314;48.272;11.562;2023-02-28T15:27:51;130.87;;;10.00;;
4603;SDS011;2314;48.272;11.562;2023-02-28T15:30:21;129.13;;;9.80;;
4603;SDS011;2314;48.272;11.562;2023-02-28T15:33:04;138.10;;;10.10;;
4603;SDS011;2314;48.272;11.562;2023-02-28T15:35:44;129.67;;;9.13;;
4603;SDS011;2314;48.272;11.562;2023-02-28T15:38:14;131.80;;;10.40;;